createdAt,value
2019-02-19T00:00:20.404Z,0.00
2019-02-19T00:01:20.390Z,0.00
2019-02-19T00:02:20.378Z,0.00
2019-02-19T00:03:20.369Z,0.00
2019-02-19T00:04:20.374Z,0.00
2019-02-19T00:05:20.349Z,0.00
2019-02-19T00:06:20.354Z,0.00
2019-02-19T00:07:20.339Z,0.00
2019-02-19T00:08:20.316Z,0.00
2019-02-19T00:09:20.310Z,0.00
2019-02-19T00:10:20.296Z,0.00
2019-02-19T00:11:20.290Z,0.00
2019-02-19T00:12:20.274Z,0.00
2019-02-19T00:13:20.266Z,0.00
2019-02-19T00:14:20.255Z,0.00
2019-02-19T00:15:20.247Z,0.00
2019-02-19T00:16:20.232Z,0.00
2019-02-19T00:17:20.226Z,0.00
2019-02-19T00:18:20.400Z,0.00
2019-02-19T00:19:20.199Z,0.00
2019-02-19T00:20:20.188Z,0.00
2019-02-19T00:21:20.177Z,0.00
2019-02-19T00:22:20.388Z,0.00
2019-02-19T00:23:20.169Z,0.00
2019-02-19T00:24:20.385Z,0.00
2019-02-19T00:25:20.119Z,0.00
2019-02-19T00:26:20.118Z,0.00
2019-02-19T00:27:20.102Z,0.00
2019-02-19T00:28:20.383Z,0.00
2019-02-19T00:29:20.085Z,0.00
2019-02-19T00:30:20.082Z,0.00
2019-02-19T00:31:20.077Z,0.00
2019-02-19T00:32:20.048Z,0.00
2019-02-19T00:33:20.066Z,0.00
2019-02-19T00:34:20.384Z,0.00
2019-02-19T00:35:20.009Z,0.00
2019-02-19T00:36:20.001Z,0.00
2019-02-19T00:37:19.995Z,0.00
2019-02-19T00:38:19.985Z,0.00
2019-02-19T00:39:19.982Z,0.00
2019-02-19T00:40:19.957Z,0.00
2019-02-19T00:41:19.941Z,0.00
2019-02-19T00:42:19.945Z,0.00
2019-02-19T00:43:19.927Z,0.00
2019-02-19T00:44:19.930Z,0.00
2019-02-19T00:45:19.901Z,0.00
2019-02-19T00:46:19.905Z,0.00
2019-02-19T00:47:19.880Z,0.00
2019-02-19T00:48:19.873Z,0.00
2019-02-19T00:49:19.895Z,0.00
2019-02-19T00:50:19.868Z,0.00
2019-02-19T00:51:19.855Z,0.00
2019-02-19T00:52:19.840Z,0.00
2019-02-19T00:53:19.884Z,0.00
2019-02-19T00:54:19.897Z,0.00
2019-02-19T00:55:19.794Z,0.00
2019-02-19T00:56:19.787Z,0.00
2019-02-19T00:57:19.891Z,0.00
2019-02-19T00:58:19.786Z,0.00
2019-02-19T00:59:19.745Z,0.00
2019-02-19T01:00:19.894Z,0.00
2019-02-19T01:01:19.733Z,0.00
2019-02-19T01:02:19.713Z,0.00
2019-02-19T01:03:19.705Z,0.00
2019-02-19T01:04:19.694Z,0.00
2019-02-19T01:05:19.700Z,0.00
2019-02-19T01:06:19.671Z,0.00
2019-02-19T01:07:19.702Z,0.00
2019-02-19T01:08:19.648Z,0.00
2019-02-19T01:09:19.659Z,0.00
2019-02-19T01:10:19.631Z,0.00
2019-02-19T01:11:19.614Z,0.00
2019-02-19T01:12:19.638Z,0.00
2019-02-19T01:13:19.611Z,0.00
2019-02-19T01:14:19.596Z,0.00
2019-02-19T01:15:25.577Z,0.00
2019-02-19T01:16:20.570Z,0.00
2019-02-19T01:17:19.550Z,0.00
2019-02-19T01:18:19.541Z,0.00
2019-02-19T01:19:19.540Z,0.00
2019-02-19T01:20:19.894Z,0.00
2019-02-19T01:21:19.506Z,0.00
2019-02-19T01:22:19.498Z,0.00
2019-02-19T01:23:20.348Z,0.00
2019-02-19T01:24:19.490Z,0.00
2019-02-19T01:25:19.484Z,0.00
2019-02-19T01:26:19.896Z,0.00
2019-02-19T01:27:19.458Z,0.00
2019-02-19T01:28:19.444Z,0.00
2019-02-19T01:29:19.420Z,0.00
2019-02-19T01:30:19.895Z,0.00
2019-02-19T01:31:19.400Z,0.00
2019-02-19T01:32:19.399Z,0.00
2019-02-19T01:33:19.386Z,0.00
2019-02-19T01:34:19.394Z,0.00
2019-02-19T01:35:19.367Z,0.00
2019-02-19T01:36:19.419Z,0.00
2019-02-19T01:37:19.333Z,0.00
2019-02-19T01:38:19.320Z,0.00
2019-02-19T01:39:19.328Z,0.00
2019-02-19T01:40:19.306Z,0.00
2019-02-19T01:41:19.389Z,0.00
2019-02-19T01:42:19.295Z,0.00
2019-02-19T01:43:19.408Z,0.00
2019-02-19T01:44:19.276Z,0.00
2019-02-19T01:45:19.269Z,0.00
2019-02-19T01:46:19.407Z,0.00
2019-02-19T01:47:19.222Z,0.00
2019-02-19T01:48:19.212Z,0.00
2019-02-19T01:49:19.200Z,0.00
2019-02-19T01:50:19.191Z,0.00
2019-02-19T01:51:19.418Z,0.00
2019-02-19T01:52:19.181Z,0.00
2019-02-19T01:53:19.176Z,0.00
2019-02-19T01:54:19.167Z,0.00
2019-02-19T01:55:19.149Z,0.00
2019-02-19T01:56:19.133Z,0.00
2019-02-19T01:57:19.137Z,0.00
2019-02-19T01:58:19.121Z,0.00
2019-02-19T01:59:19.093Z,0.00
2019-02-19T02:00:19.079Z,0.00
2019-02-19T02:01:19.080Z,0.00
2019-02-19T02:02:19.080Z,0.00
2019-02-19T02:03:19.048Z,0.00
2019-02-19T02:04:19.038Z,0.00
2019-02-19T02:05:19.062Z,0.00
2019-02-19T02:06:19.032Z,0.00
2019-02-19T02:07:19.013Z,0.00
2019-02-19T02:08:19.006Z,0.00
2019-02-19T02:09:18.999Z,0.00
2019-02-19T02:10:19.391Z,0.00
2019-02-19T02:11:19.403Z,0.00
2019-02-19T02:12:18.959Z,0.00
2019-02-19T02:13:18.947Z,0.00
2019-02-19T02:14:18.950Z,0.00
2019-02-19T02:15:18.919Z,0.00
2019-02-19T02:16:18.912Z,0.00
2019-02-19T02:17:19.407Z,0.00
2019-02-19T02:18:18.920Z,0.00
2019-02-19T02:19:18.875Z,0.00
2019-02-19T02:20:18.865Z,0.00
2019-02-19T02:21:18.853Z,0.00
2019-02-19T02:22:18.849Z,0.00
2019-02-19T02:23:18.908Z,0.00
2019-02-19T02:24:18.824Z,0.00
2019-02-19T02:25:18.855Z,0.00
2019-02-19T02:26:18.799Z,0.00
2019-02-19T02:27:18.816Z,0.00
2019-02-19T02:28:18.788Z,0.00
2019-02-19T02:29:18.773Z,0.00
2019-02-19T02:30:18.792Z,0.00
2019-02-19T02:31:18.757Z,0.00
2019-02-19T02:32:18.919Z,0.00
2019-02-19T02:33:18.743Z,0.00
2019-02-19T02:34:18.719Z,0.00
2019-02-19T02:35:18.726Z,0.00
2019-02-19T02:36:18.735Z,0.00
2019-02-19T02:37:18.687Z,0.00
2019-02-19T02:38:18.920Z,0.00
2019-02-19T02:39:18.702Z,0.00
2019-02-19T02:40:18.649Z,0.00
2019-02-19T02:41:18.653Z,0.00
2019-02-19T02:42:18.633Z,0.00
2019-02-19T02:43:18.923Z,0.00
2019-02-19T02:44:18.627Z,0.00
2019-02-19T02:45:18.611Z,0.00
2019-02-19T02:46:18.937Z,0.00
2019-02-19T02:47:18.581Z,0.00
2019-02-19T02:48:18.581Z,0.00
2019-02-19T02:49:18.602Z,0.00
2019-02-19T02:50:18.548Z,0.00
2019-02-19T02:51:18.549Z,0.00
2019-02-19T02:52:18.528Z,0.00
2019-02-19T02:53:18.521Z,0.00
2019-02-19T02:54:18.511Z,0.00
2019-02-19T02:55:18.496Z,0.00
2019-02-19T02:56:18.504Z,0.00
2019-02-19T02:57:19.398Z,0.00
2019-02-19T02:58:18.458Z,0.00
2019-02-19T02:59:18.437Z,0.00
2019-02-19T03:00:18.449Z,0.00
2019-02-19T03:01:18.458Z,0.00
2019-02-19T03:02:18.408Z,0.00
2019-02-19T03:03:18.395Z,0.00
2019-02-19T03:04:18.388Z,0.00
2019-02-19T03:05:18.374Z,0.00
2019-02-19T03:06:18.392Z,0.00
2019-02-19T03:07:18.351Z,0.00
2019-02-19T03:08:18.344Z,0.00
2019-02-19T03:09:18.335Z,0.00
2019-02-19T03:10:18.317Z,0.00
2019-02-19T03:11:18.419Z,0.00
2019-02-19T03:12:18.304Z,0.00
2019-02-19T03:13:18.292Z,0.00
2019-02-19T03:14:18.274Z,0.00
2019-02-19T03:15:18.282Z,0.00
2019-02-19T03:16:18.258Z,0.00
2019-02-19T03:17:18.262Z,0.00
2019-02-19T03:18:18.236Z,0.00
2019-02-19T03:19:18.438Z,0.00
2019-02-19T03:20:18.226Z,0.00
2019-02-19T03:21:18.213Z,0.00
2019-02-19T03:22:18.189Z,0.00
2019-02-19T03:23:18.426Z,0.00
2019-02-19T03:24:18.171Z,0.00
2019-02-19T03:25:18.179Z,0.00
2019-02-19T03:26:18.161Z,0.00
2019-02-19T03:27:18.142Z,0.00
2019-02-19T03:28:18.131Z,0.00
2019-02-19T03:29:18.430Z,0.00
2019-02-19T03:30:18.098Z,0.00
2019-02-19T03:31:18.104Z,0.00
2019-02-19T03:32:18.093Z,0.00
2019-02-19T03:33:18.070Z,0.00
2019-02-19T03:34:18.057Z,0.00
2019-02-19T03:35:18.417Z,0.00
2019-02-19T03:36:18.051Z,0.00
2019-02-19T03:37:18.058Z,0.00
2019-02-19T03:38:18.009Z,0.00
2019-02-19T03:39:18.002Z,0.00
2019-02-19T03:40:17.990Z,0.00
2019-02-19T03:41:17.981Z,0.00
2019-02-19T03:42:18.438Z,0.00
2019-02-19T03:43:17.969Z,0.00
2019-02-19T03:44:17.944Z,0.00
2019-02-19T03:45:17.950Z,0.00
2019-02-19T03:46:17.925Z,0.00
2019-02-19T03:47:17.931Z,0.00
2019-02-19T03:48:17.907Z,0.00
2019-02-19T03:49:17.901Z,0.00
2019-02-19T03:50:17.888Z,0.00
2019-02-19T03:51:17.871Z,0.00
2019-02-19T03:52:17.879Z,0.00
2019-02-19T03:53:17.852Z,0.00
2019-02-19T03:54:17.943Z,0.00
2019-02-19T03:55:17.825Z,0.00
2019-02-19T03:56:17.813Z,0.00
2019-02-19T03:57:17.806Z,0.00
2019-02-19T03:58:17.818Z,0.00
2019-02-19T03:59:17.869Z,0.00
2019-02-19T04:00:17.771Z,0.00
2019-02-19T04:01:17.791Z,0.00
2019-02-19T04:02:17.758Z,0.00
2019-02-19T04:03:17.748Z,0.00
2019-02-19T04:04:17.737Z,0.00
2019-02-19T04:05:17.937Z,0.00
2019-02-19T04:06:17.712Z,0.00
2019-02-19T04:07:17.703Z,0.00
2019-02-19T04:08:17.697Z,0.00
2019-02-19T04:09:17.673Z,0.00
2019-02-19T04:10:17.944Z,0.00
2019-02-19T04:11:17.695Z,0.00
2019-02-19T04:12:17.675Z,0.00
2019-02-19T04:13:17.643Z,0.00
2019-02-19T04:14:17.626Z,0.00
2019-02-19T04:15:17.618Z,0.00
2019-02-19T04:16:21.356Z,0.00
2019-02-19T04:17:17.589Z,0.00
2019-02-19T04:18:17.588Z,0.00
2019-02-19T04:19:17.565Z,0.00
2019-02-19T04:20:17.552Z,0.00
2019-02-19T04:21:17.932Z,0.00
2019-02-19T04:22:17.533Z,0.00
2019-02-19T04:23:17.548Z,0.00
2019-02-19T04:24:17.518Z,0.00
2019-02-19T04:25:17.510Z,0.00
2019-02-19T04:26:17.489Z,0.00
2019-02-19T04:27:17.479Z,0.00
2019-02-19T04:28:17.481Z,0.00
2019-02-19T04:29:17.483Z,0.00
2019-02-19T04:30:17.468Z,0.00
2019-02-19T04:31:17.433Z,0.00
2019-02-19T04:32:17.429Z,0.00
2019-02-19T04:33:17.449Z,0.00
2019-02-19T04:34:17.406Z,0.00
2019-02-19T04:35:17.390Z,0.00
2019-02-19T04:36:17.407Z,0.00
2019-02-19T04:37:17.369Z,0.00
2019-02-19T04:38:17.375Z,0.00
2019-02-19T04:39:17.347Z,0.00
2019-02-19T04:40:17.352Z,0.00
2019-02-19T04:41:17.453Z,0.00
2019-02-19T04:42:17.356Z,0.00
2019-02-19T04:43:17.325Z,0.00
2019-02-19T04:44:17.318Z,0.00
2019-02-19T04:45:17.293Z,0.00
2019-02-19T04:46:17.286Z,0.00
2019-02-19T04:47:17.425Z,0.00
2019-02-19T04:48:17.246Z,0.00
2019-02-19T04:49:17.244Z,0.00
2019-02-19T04:50:17.236Z,0.00
2019-02-19T04:51:17.238Z,0.00
2019-02-19T04:52:17.242Z,0.00
2019-02-19T04:53:17.210Z,0.00
2019-02-19T04:54:17.189Z,0.00
2019-02-19T04:55:17.192Z,0.00
2019-02-19T04:56:17.454Z,0.00
2019-02-19T04:57:17.151Z,0.00
2019-02-19T04:58:17.169Z,0.00
2019-02-19T04:59:17.132Z,0.00
2019-02-19T05:00:17.122Z,0.00
2019-02-19T05:01:17.117Z,0.00
2019-02-19T05:02:17.456Z,0.00
2019-02-19T05:03:17.099Z,0.00
2019-02-19T05:04:17.099Z,0.00
2019-02-19T05:05:17.086Z,0.00
2019-02-19T05:06:17.062Z,0.00
2019-02-19T05:07:17.443Z,0.00
2019-02-19T05:08:17.032Z,0.00
2019-02-19T05:09:17.019Z,0.00
2019-02-19T05:10:17.034Z,0.00
2019-02-19T05:11:17.000Z,0.00
2019-02-19T05:12:16.990Z,0.00
2019-02-19T05:13:17.449Z,0.00
2019-02-19T05:14:16.973Z,0.00
2019-02-19T05:15:16.973Z,0.00
2019-02-19T05:16:16.950Z,0.00
2019-02-19T05:17:16.958Z,0.00
2019-02-19T05:18:16.919Z,0.00
2019-02-19T05:19:16.915Z,0.00
2019-02-19T05:20:16.902Z,0.00
2019-02-19T05:21:16.904Z,0.00
2019-02-19T05:22:16.940Z,0.00
2019-02-19T05:23:16.870Z,0.00
2019-02-19T05:24:16.859Z,0.00
2019-02-19T05:25:16.966Z,0.00
2019-02-19T05:26:16.842Z,0.00
2019-02-19T05:27:16.846Z,0.00
2019-02-19T05:28:16.838Z,0.00
2019-02-19T05:29:16.822Z,0.00
2019-02-19T05:30:16.936Z,0.00
2019-02-19T05:31:16.801Z,0.00
2019-02-19T05:32:16.772Z,0.00
2019-02-19T05:33:16.792Z,0.00
2019-02-19T05:34:16.753Z,0.00
2019-02-19T05:35:16.752Z,0.00
2019-02-19T05:36:16.750Z,0.00
2019-02-19T05:37:16.718Z,0.00
2019-02-19T05:38:16.715Z,0.00
2019-02-19T05:39:16.952Z,0.00
2019-02-19T05:40:16.686Z,0.00
2019-02-19T05:41:16.961Z,0.00
2019-02-19T05:42:16.667Z,0.00
2019-02-19T05:43:16.656Z,0.00
2019-02-19T05:44:16.658Z,0.00
2019-02-19T05:45:16.967Z,0.00
2019-02-19T05:46:16.626Z,0.00
2019-02-19T05:47:16.617Z,0.00
2019-02-19T05:48:16.603Z,0.00
2019-02-19T05:49:16.592Z,0.00
2019-02-19T05:50:16.612Z,0.00
2019-02-19T05:51:16.569Z,0.00
2019-02-19T05:52:16.559Z,0.00
2019-02-19T05:53:16.556Z,0.00
2019-02-19T05:54:16.971Z,0.00
2019-02-19T05:55:17.439Z,0.00
2019-02-19T05:56:16.543Z,0.00
2019-02-19T05:57:16.959Z,0.00
2019-02-19T05:58:16.494Z,0.00
2019-02-19T05:59:16.482Z,0.00
2019-02-19T06:00:16.470Z,0.00
2019-02-19T06:01:16.961Z,0.00
2019-02-19T06:02:16.479Z,0.00
2019-02-19T06:03:16.445Z,0.00
2019-02-19T06:04:16.432Z,0.00
2019-02-19T06:05:16.427Z,0.00
2019-02-19T06:06:16.437Z,0.00
2019-02-19T06:07:16.413Z,0.00
2019-02-19T06:08:16.428Z,4.00
2019-02-19T06:09:16.428Z,8.00
2019-02-19T06:10:16.946Z,8.00
2019-02-19T06:11:16.365Z,8.00
2019-02-19T06:12:16.360Z,8.00
2019-02-19T06:13:16.356Z,8.00
2019-02-19T06:14:16.327Z,8.00
2019-02-19T06:15:16.321Z,8.00
2019-02-19T06:16:16.307Z,8.00
2019-02-19T06:17:16.290Z,8.00
2019-02-19T06:18:16.301Z,8.00
2019-02-19T06:19:16.270Z,8.00
2019-02-19T06:20:16.276Z,4.00
2019-02-19T06:21:16.943Z,8.00
2019-02-19T06:22:16.268Z,4.00
2019-02-19T06:23:16.233Z,8.00
2019-02-19T06:24:16.212Z,8.00
2019-02-19T06:25:16.210Z,8.00
2019-02-19T06:26:16.197Z,8.00
2019-02-19T06:27:16.217Z,8.00
2019-02-19T06:28:16.944Z,8.00
2019-02-19T06:29:16.164Z,8.00
2019-02-19T06:30:16.154Z,8.00
2019-02-19T06:31:16.968Z,8.00
2019-02-19T06:32:16.463Z,8.00
2019-02-19T06:33:16.532Z,8.00
2019-02-19T06:34:17.974Z,8.00
2019-02-19T06:35:16.471Z,8.00
2019-02-19T06:36:16.102Z,8.00
2019-02-19T06:37:16.943Z,8.00
2019-02-19T06:38:16.072Z,8.00
2019-02-19T06:39:17.089Z,8.00
2019-02-19T06:40:16.119Z,8.00
2019-02-19T06:41:17.170Z,8.00
2019-02-19T06:42:16.030Z,8.00
2019-02-19T06:43:16.953Z,8.00
2019-02-19T06:44:16.966Z,8.00
2019-02-19T06:45:16.029Z,8.00
2019-02-19T06:46:16.961Z,8.00
2019-02-19T06:47:16.953Z,8.00
2019-02-19T06:48:16.949Z,8.00
2019-02-19T06:49:15.976Z,8.00
2019-02-19T06:50:16.497Z,8.00
2019-02-19T06:51:15.935Z,12.00
2019-02-19T06:52:16.479Z,12.00
2019-02-19T06:53:16.468Z,8.00
2019-02-19T06:54:16.497Z,8.00
2019-02-19T06:55:16.464Z,12.00
2019-02-19T06:56:15.871Z,12.00
2019-02-19T06:57:16.460Z,8.00
2019-02-19T06:58:16.464Z,12.00
2019-02-19T06:59:15.988Z,12.00
2019-02-19T07:00:16.499Z,12.00
2019-02-19T07:01:15.823Z,12.00
2019-02-19T07:02:16.480Z,12.00
2019-02-19T07:03:16.596Z,12.00
2019-02-19T07:04:15.993Z,16.00
2019-02-19T07:05:16.462Z,12.00
2019-02-19T07:06:15.981Z,16.00
2019-02-19T07:07:16.464Z,12.00
2019-02-19T07:08:16.479Z,16.00
2019-02-19T07:09:16.472Z,16.00
2019-02-19T07:10:16.461Z,16.00
2019-02-19T07:11:16.191Z,12.00
2019-02-19T07:12:16.469Z,12.00
2019-02-19T07:13:16.462Z,16.00
2019-02-19T07:14:16.460Z,16.00
2019-02-19T07:15:16.500Z,16.00
2019-02-19T07:16:16.482Z,12.00
2019-02-19T07:17:16.057Z,12.00
2019-02-19T07:18:16.461Z,12.00
2019-02-19T07:19:16.474Z,12.00
2019-02-19T07:20:16.470Z,12.00
2019-02-19T07:21:16.458Z,12.00
2019-02-19T07:22:15.997Z,12.00
2019-02-19T07:23:16.467Z,16.00
2019-02-19T07:24:26.489Z,16.00
2019-02-19T07:25:16.464Z,16.00
2019-02-19T07:26:16.501Z,16.00
2019-02-19T07:27:15.535Z,16.00
2019-02-19T07:28:16.479Z,16.00
2019-02-19T07:29:18.995Z,16.00
2019-02-19T07:30:16.463Z,16.00
2019-02-19T07:31:16.488Z,16.00
2019-02-19T07:32:15.478Z,20.00
2019-02-19T07:33:16.504Z,20.00
2019-02-19T07:34:15.476Z,20.00
2019-02-19T07:35:15.499Z,20.00
2019-02-19T07:36:16.365Z,20.00
2019-02-19T07:37:15.420Z,20.00
2019-02-19T07:38:15.422Z,20.00
2019-02-19T07:39:15.961Z,24.00
2019-02-19T07:40:17.422Z,20.00
2019-02-19T07:41:15.485Z,24.00
2019-02-19T07:42:15.503Z,24.00
2019-02-19T07:43:16.001Z,24.00
2019-02-19T07:44:15.970Z,24.00
2019-02-19T07:45:15.974Z,20.00
2019-02-19T07:46:15.970Z,20.00
2019-02-19T07:47:24.436Z,24.00
2019-02-19T07:48:16.974Z,20.00
2019-02-19T07:49:15.967Z,24.00
2019-02-19T07:50:15.974Z,20.00
2019-02-19T07:51:15.986Z,20.00
2019-02-19T07:52:15.988Z,24.00
2019-02-19T07:53:15.315Z,24.00
2019-02-19T07:54:16.004Z,24.00
2019-02-19T07:55:15.974Z,20.00
2019-02-19T07:56:15.978Z,24.00
2019-02-19T07:57:15.514Z,20.00
2019-02-19T07:58:15.975Z,24.00
2019-02-19T07:59:15.189Z,20.00
2019-02-19T08:00:16.004Z,16.00
2019-02-19T08:01:15.497Z,20.00
2019-02-19T08:02:15.979Z,20.00
2019-02-19T08:03:15.978Z,20.00
2019-02-19T08:04:18.592Z,20.00
2019-02-19T08:05:15.971Z,16.00
2019-02-19T08:06:15.969Z,16.00
2019-02-19T08:07:15.573Z,16.00
2019-02-19T08:08:15.968Z,16.00
2019-02-19T08:09:15.074Z,16.00
2019-02-19T08:10:16.000Z,12.00
2019-02-19T08:11:15.491Z,16.00
2019-02-19T08:12:15.972Z,16.00
2019-02-19T08:13:16.025Z,16.00
2019-02-19T08:14:15.981Z,16.00
2019-02-19T08:15:15.973Z,16.00
2019-02-19T08:16:15.512Z,16.00
2019-02-19T08:17:15.554Z,16.00
2019-02-19T08:18:15.984Z,16.00
2019-02-19T08:19:15.492Z,16.00
2019-02-19T08:20:18.477Z,16.00
2019-02-19T08:21:15.482Z,16.00
2019-02-19T08:22:16.045Z,16.00
2019-02-19T08:23:15.022Z,16.00
2019-02-19T08:24:15.471Z,24.00
2019-02-19T08:25:14.907Z,24.00
2019-02-19T08:26:15.478Z,36.00
2019-02-19T08:27:15.500Z,44.00
2019-02-19T08:28:15.019Z,56.00
2019-02-19T08:29:15.520Z,60.00
2019-02-19T08:30:14.879Z,60.00
2019-02-19T08:31:15.475Z,60.00
2019-02-19T08:32:15.499Z,64.00
2019-02-19T08:33:15.004Z,60.00
2019-02-19T08:34:15.027Z,64.00
2019-02-19T08:35:14.810Z,64.00
2019-02-19T08:36:15.500Z,64.00
2019-02-19T08:37:17.608Z,64.00
2019-02-19T08:38:15.511Z,60.00
2019-02-19T08:39:15.492Z,64.00
2019-02-19T08:40:15.003Z,64.00
2019-02-19T08:41:15.537Z,64.00
2019-02-19T08:42:15.500Z,64.00
2019-02-19T08:43:15.527Z,64.00
2019-02-19T08:44:15.537Z,64.00
2019-02-19T08:45:15.504Z,64.00
2019-02-19T08:46:15.485Z,64.00
2019-02-19T08:47:15.496Z,64.00
2019-02-19T08:48:15.493Z,64.00
2019-02-19T08:49:15.544Z,68.00
2019-02-19T08:50:15.499Z,68.00
2019-02-19T08:51:14.629Z,64.00
2019-02-19T08:52:15.491Z,68.00
2019-02-19T08:53:15.493Z,68.00
2019-02-19T08:54:15.522Z,72.00
2019-02-19T08:55:15.501Z,76.00
2019-02-19T08:56:14.578Z,72.00
2019-02-19T08:57:15.566Z,68.00
2019-02-19T08:58:15.011Z,60.00
2019-02-19T08:59:15.514Z,68.00
2019-02-19T09:00:15.508Z,68.00
2019-02-19T09:01:15.015Z,68.00
2019-02-19T09:02:15.495Z,72.00
2019-02-19T09:03:16.944Z,56.00
2019-02-19T09:04:14.998Z,72.00
2019-02-19T09:05:14.995Z,64.00
2019-02-19T09:06:15.048Z,72.00
2019-02-19T09:07:15.023Z,56.00
2019-02-19T09:08:15.011Z,64.00
2019-02-19T09:09:15.011Z,76.00
2019-02-19T09:10:14.621Z,76.00
2019-02-19T09:11:14.992Z,40.00
2019-02-19T09:12:14.452Z,76.00
2019-02-19T09:13:14.993Z,72.00
2019-02-19T09:14:14.997Z,72.00
2019-02-19T09:15:15.003Z,96.00
2019-02-19T09:16:15.001Z,116.00
2019-02-19T09:17:14.522Z,92.00
2019-02-19T09:18:14.996Z,80.00
2019-02-19T09:19:15.003Z,88.00
2019-02-19T09:20:15.010Z,84.00
2019-02-19T09:21:15.023Z,48.00
2019-02-19T09:22:14.287Z,84.00
2019-02-19T09:23:15.046Z,100.00
2019-02-19T09:24:15.030Z,84.00
2019-02-19T09:25:15.010Z,72.00
2019-02-19T09:26:14.998Z,76.00
2019-02-19T09:27:14.241Z,56.00
2019-02-19T09:28:14.528Z,52.00
2019-02-19T09:29:14.535Z,56.00
2019-02-19T09:30:15.002Z,72.00
2019-02-19T09:31:15.019Z,44.00
2019-02-19T09:32:15.011Z,76.00
2019-02-19T09:33:14.998Z,80.00
2019-02-19T09:34:14.206Z,72.00
2019-02-19T09:35:15.004Z,76.00
2019-02-19T09:36:15.026Z,44.00
2019-02-19T09:37:15.012Z,64.00
2019-02-19T09:38:14.563Z,56.00
2019-02-19T09:39:14.558Z,64.00
2019-02-19T09:40:14.532Z,80.00
2019-02-19T09:41:15.015Z,76.00
2019-02-19T09:42:15.012Z,72.00
2019-02-19T09:43:15.004Z,60.00
2019-02-19T09:44:14.532Z,72.00
2019-02-19T09:45:17.017Z,80.00
2019-02-19T09:46:15.072Z,48.00
2019-02-19T09:47:15.011Z,52.00
2019-02-19T09:48:14.034Z,44.00
2019-02-19T09:49:14.109Z,44.00
2019-02-19T09:50:14.502Z,36.00
2019-02-19T09:51:14.051Z,52.00
2019-02-19T09:52:14.523Z,52.00
2019-02-19T09:53:14.525Z,68.00
2019-02-19T09:54:14.578Z,44.00
2019-02-19T09:55:14.502Z,72.00
2019-02-19T09:56:14.818Z,80.00
2019-02-19T09:57:14.523Z,92.00
2019-02-19T09:58:14.508Z,72.00
2019-02-19T09:59:16.515Z,56.00
2019-02-19T10:00:14.510Z,36.00
2019-02-19T10:01:13.926Z,36.00
2019-02-19T10:02:14.014Z,40.00
2019-02-19T10:03:14.519Z,80.00
2019-02-19T10:04:13.841Z,64.00
2019-02-19T10:05:14.508Z,56.00
2019-02-19T10:06:14.511Z,88.00
2019-02-19T10:07:14.627Z,56.00
2019-02-19T10:08:14.549Z,76.00
2019-02-19T10:09:14.052Z,52.00
2019-02-19T10:10:14.516Z,60.00
2019-02-19T10:11:14.522Z,64.00
2019-02-19T10:12:14.507Z,52.00
2019-02-19T10:13:19.058Z,64.00
2019-02-19T10:14:13.733Z,52.00
2019-02-19T10:15:14.535Z,52.00
2019-02-19T10:16:14.507Z,80.00
2019-02-19T10:17:14.507Z,40.00
2019-02-19T10:18:14.522Z,52.00
2019-02-19T10:19:14.047Z,88.00
2019-02-19T10:20:14.528Z,60.00
2019-02-19T10:21:14.513Z,40.00
2019-02-19T10:22:13.653Z,68.00
2019-02-19T10:23:14.044Z,48.00
2019-02-19T10:24:14.542Z,56.00
2019-02-19T10:25:14.515Z,48.00
2019-02-19T10:26:14.517Z,40.00
2019-02-19T10:27:14.512Z,48.00
2019-02-19T10:28:14.045Z,40.00
2019-02-19T10:29:14.524Z,40.00
2019-02-19T10:30:13.565Z,36.00
2019-02-19T10:31:14.513Z,48.00
2019-02-19T10:32:14.517Z,32.00
2019-02-19T10:33:16.004Z,36.00
2019-02-19T10:34:13.531Z,52.00
2019-02-19T10:35:13.501Z,32.00
2019-02-19T10:36:14.051Z,32.00
2019-02-19T10:37:13.576Z,52.00
2019-02-19T10:38:14.019Z,40.00
2019-02-19T10:39:14.024Z,32.00
2019-02-19T10:40:13.458Z,36.00
2019-02-19T10:41:13.538Z,48.00
2019-02-19T10:42:14.143Z,40.00
2019-02-19T10:43:13.422Z,36.00
2019-02-19T10:44:13.571Z,52.00
2019-02-19T10:45:13.550Z,48.00
2019-02-19T10:46:13.382Z,44.00
2019-02-19T10:47:14.027Z,44.00
2019-02-19T10:48:18.995Z,40.00
2019-02-19T10:49:14.545Z,36.00
2019-02-19T10:50:14.023Z,36.00
2019-02-19T10:51:13.384Z,36.00
2019-02-19T10:52:15.092Z,32.00
2019-02-19T10:53:14.035Z,32.00
2019-02-19T10:54:13.568Z,28.00
2019-02-19T10:55:14.030Z,28.00
2019-02-19T10:56:13.316Z,36.00
2019-02-19T10:57:14.027Z,48.00
2019-02-19T10:58:22.274Z,36.00
2019-02-19T10:59:15.042Z,36.00
2019-02-19T11:00:14.052Z,36.00
2019-02-19T11:01:13.562Z,48.00
2019-02-19T11:02:14.021Z,48.00
2019-02-19T11:03:14.028Z,40.00
2019-02-19T11:04:13.197Z,48.00
2019-02-19T11:05:14.069Z,64.00
2019-02-19T11:06:14.044Z,52.00
2019-02-19T11:07:13.153Z,52.00
2019-02-19T11:08:14.030Z,52.00
2019-02-19T11:09:13.149Z,40.00
2019-02-19T11:10:14.028Z,44.00
2019-02-19T11:11:13.561Z,48.00
2019-02-19T11:12:13.103Z,44.00
2019-02-19T11:13:14.019Z,52.00
2019-02-19T11:14:14.020Z,56.00
2019-02-19T11:15:14.037Z,52.00
2019-02-19T11:16:13.091Z,52.00
2019-02-19T11:17:13.048Z,52.00
2019-02-19T11:18:14.039Z,60.00
2019-02-19T11:19:13.065Z,68.00
2019-02-19T11:20:13.542Z,64.00
2019-02-19T11:21:19.470Z,68.00
2019-02-19T11:22:13.998Z,64.00
2019-02-19T11:23:13.548Z,72.00
2019-02-19T11:24:13.011Z,80.00
2019-02-19T11:25:13.538Z,80.00
2019-02-19T11:26:13.044Z,56.00
2019-02-19T11:27:12.940Z,52.00
2019-02-19T11:28:13.068Z,48.00
2019-02-19T11:29:12.969Z,44.00
2019-02-19T11:30:13.584Z,60.00
2019-02-19T11:31:13.552Z,56.00
2019-02-19T11:32:13.554Z,48.00
2019-02-19T11:33:12.877Z,60.00
2019-02-19T11:34:12.879Z,64.00
2019-02-19T11:35:13.047Z,72.00
2019-02-19T11:36:13.066Z,60.00
2019-02-19T11:37:13.545Z,60.00
2019-02-19T11:38:12.831Z,56.00
2019-02-19T11:39:12.812Z,52.00
2019-02-19T11:40:13.549Z,60.00
2019-02-19T11:41:13.061Z,64.00
2019-02-19T11:42:13.542Z,48.00
2019-02-19T11:43:12.765Z,56.00
2019-02-19T11:44:12.791Z,60.00
2019-02-19T11:45:12.764Z,64.00
2019-02-19T11:46:12.750Z,68.00
2019-02-19T11:47:13.079Z,72.00
2019-02-19T11:48:12.711Z,72.00
2019-02-19T11:49:13.561Z,64.00
2019-02-19T11:50:12.702Z,60.00
2019-02-19T11:51:13.542Z,52.00
2019-02-19T11:52:12.694Z,52.00
2019-02-19T11:53:13.541Z,52.00
2019-02-19T11:54:13.595Z,44.00
2019-02-19T11:55:12.710Z,40.00
2019-02-19T11:56:13.538Z,44.00
2019-02-19T11:57:13.542Z,52.00
2019-02-19T11:58:13.543Z,48.00
2019-02-19T11:59:12.629Z,56.00
2019-02-19T12:00:27.063Z,60.00
2019-02-19T12:01:13.184Z,48.00
2019-02-19T12:02:13.551Z,44.00
2019-02-19T12:03:12.550Z,36.00
2019-02-19T12:04:12.570Z,48.00
2019-02-19T12:05:12.590Z,52.00
2019-02-19T12:06:13.053Z,60.00
2019-02-19T12:07:12.565Z,60.00
2019-02-19T12:08:12.537Z,52.00
2019-02-19T12:09:12.503Z,56.00
2019-02-19T12:10:13.139Z,48.00
2019-02-19T12:11:13.087Z,40.00
2019-02-19T12:12:12.462Z,48.00
2019-02-19T12:13:13.059Z,60.00
2019-02-19T12:14:12.428Z,64.00
2019-02-19T12:15:13.049Z,56.00
2019-02-19T12:16:13.071Z,60.00
2019-02-19T12:17:13.052Z,48.00
2019-02-19T12:18:12.577Z,48.00
2019-02-19T12:19:13.104Z,52.00
2019-02-19T12:20:13.044Z,52.00
2019-02-19T12:21:13.046Z,44.00
2019-02-19T12:22:13.070Z,52.00
2019-02-19T12:23:12.624Z,60.00
2019-02-19T12:24:13.106Z,64.00
2019-02-19T12:25:12.340Z,52.00
2019-02-19T12:26:13.095Z,44.00
2019-02-19T12:27:12.288Z,44.00
2019-02-19T12:28:12.577Z,40.00
2019-02-19T12:29:12.306Z,36.00
2019-02-19T12:30:12.304Z,48.00
2019-02-19T12:31:13.086Z,56.00
2019-02-19T12:32:13.153Z,52.00
2019-02-19T12:33:13.067Z,52.00
2019-02-19T12:34:12.237Z,52.00
2019-02-19T12:35:12.239Z,48.00
2019-02-19T12:36:12.194Z,44.00
2019-02-19T12:37:12.241Z,40.00
2019-02-19T12:38:13.062Z,32.00
2019-02-19T12:39:21.734Z,48.00
2019-02-19T12:40:12.585Z,48.00
2019-02-19T12:41:13.069Z,48.00
2019-02-19T12:42:13.069Z,44.00
2019-02-19T12:43:12.157Z,40.00
2019-02-19T12:44:12.108Z,36.00
2019-02-19T12:45:12.582Z,36.00
2019-02-19T12:46:12.116Z,36.00
2019-02-19T12:47:12.110Z,48.00
2019-02-19T12:48:13.051Z,56.00
2019-02-19T12:49:12.059Z,44.00
2019-02-19T12:50:12.042Z,44.00
2019-02-19T12:51:12.083Z,52.00
2019-02-19T12:52:12.146Z,56.00
2019-02-19T12:53:12.039Z,44.00
2019-02-19T12:54:12.004Z,44.00
2019-02-19T12:55:12.558Z,60.00
2019-02-19T12:56:12.188Z,52.00
2019-02-19T12:57:12.023Z,36.00
2019-02-19T12:58:12.077Z,40.00
2019-02-19T12:59:12.631Z,48.00
2019-02-19T13:00:11.958Z,44.00
2019-02-19T13:01:11.934Z,52.00
2019-02-19T13:02:11.943Z,56.00
2019-02-19T13:03:11.926Z,64.00
2019-02-19T13:04:11.892Z,64.00
2019-02-19T13:05:11.878Z,52.00